Meteo Giornale » Osservazioni meteo Italia » Falconara

ore: 08:50 - Osservazioni Meteo Falconara
Lat. 43° 37' N Lon. 13° 22' E Alt. 12 metri s.l.m.

sereno Europe/Rome

17 °C

Sereno

Temp. 24 Ore

10 °C

25 °C

Nord

3.7 Km/h

Dew point 13 °C

Umidità 77 %

Visibilità  10 Km

Il sole sorge alle ore 06:08

Il sole tramonta alle ore 20:00

Data e Ora Cielo e Fenomeni T °C DP °C Um. % Pres. hPa Vis. km Vento km/h
Oggi h: 08:50 sereno Sereno 17 13 77 1017 10 N 3.7
Oggi h: 07:50 sereno Sereno 13 12 93 1017 10 N 3.7
Oggi h: 06:50 sereno Sereno 10 10 100 1017 10 N 5.5
Oggi h: 04:50 sereno Sereno 11 10 93 1017 10 N 5.5
Oggi h: 03:50 sereno Sereno 10 9 93 1017 10 N 1.8
Oggi h: 01:50 sereno Sereno 12 10 87 1017 10 S/SE 7.4
Oggi h: 00:50 sereno Sereno 12 9 81 1017 10 N 5.5
Ieri h: 23:50 sereno Sereno 13 9 76 1017 10 N 3.7
Ieri h: 22:50 sereno Sereno 13 9 76 1017 10 N 3.7
Ieri h: 21:50 sereno Sereno 14 10 76 1017 10 N 3.7
Ieri h: 20:50 sereno Sereno 16 9 63 1017 10 N 3.7
Ieri h: 19:50 sereno Sereno 19 9 52 1016 10 N 5.5
Ieri h: 18:50 sereno Sereno 21 9 46 1016 10 N 5.5
Ieri h: 17:50 sereno Sereno 22 8 40 1016 10 SE 9.3
Ieri h: 16:50 sereno Sereno 23 11 46 1016 10 E/SE 13
Ieri h: 15:50 sereno Sereno 24 10 41 1016 10 E/SE 13
Ieri h: 14:50 sereno Sereno 25 8 33 1017 10 E/SE 11.1
Ieri h: 13:50 sereno Sereno 24 8 35 1017 10 E 14.8
Ieri h: 12:50 sereno Sereno 25 10 38 1017 10 N 5.5
Ieri h: 11:50 sereno Sereno 23 10 43 1018 10 S/SE 7.4
Ieri h: 10:50 sereno Sereno 22 10 46 1018 10 S 7.4
Ieri h: 09:50 sereno Sereno 18 12 67 1018 10 N 3.7